createdAt,value
2022-08-25T00:01:55.303Z,74.28
2022-08-25T00:04:23.930Z,74.55
2022-08-25T00:06:51.274Z,74.61
2022-08-25T00:09:20.770Z,74.84
2022-08-25T00:11:49.221Z,75.26
2022-08-25T00:14:19.875Z,75.74
2022-08-25T00:16:47.291Z,75.23
2022-08-25T00:19:18.274Z,75.30
2022-08-25T00:21:45.979Z,75.74
2022-08-25T00:24:14.635Z,75.23
2022-08-25T00:26:43.809Z,75.80
2022-08-25T00:29:11.166Z,74.91
2022-08-25T00:31:39.201Z,74.41
2022-08-25T00:34:14.490Z,74.61
2022-08-25T00:36:41.857Z,75.06
2022-08-25T00:39:10.206Z,75.23
2022-08-25T00:41:38.385Z,75.98
2022-08-25T00:44:08.252Z,76.45
2022-08-25T00:46:38.863Z,76.45
2022-08-25T00:49:24.571Z,76.79
2022-08-25T00:51:55.600Z,76.85
2022-08-25T00:54:25.701Z,75.93
2022-08-25T00:56:53.130Z,76.83
2022-08-25T00:59:22.558Z,76.82
2022-08-25T01:01:51.198Z,77.18
2022-08-25T01:04:18.306Z,76.74
2022-08-25T01:06:47.622Z,77.07
2022-08-25T01:09:14.776Z,77.46
2022-08-25T01:11:44.372Z,76.42
2022-08-25T01:14:13.409Z,77.28
2022-08-25T01:16:41.481Z,78.07
2022-08-25T01:19:09.818Z,78.22
2022-08-25T01:21:48.451Z,78.33
2022-08-25T01:24:40.960Z,78.43
2022-08-25T01:27:08.932Z,78.45
2022-08-25T01:29:36.850Z,78.45
2022-08-25T01:32:07.772Z,78.76
2022-08-25T01:34:37.281Z,79.25
2022-08-25T01:37:04.823Z,79.51
2022-08-25T01:39:38.762Z,79.52
2022-08-25T01:42:13.273Z,79.73
2022-08-25T01:44:45.378Z,79.59
2022-08-25T01:47:13.790Z,79.74
2022-08-25T01:49:40.495Z,79.85
2022-08-25T01:52:23.660Z,80.06
2022-08-25T01:54:50.282Z,80.24
2022-08-25T01:57:17.654Z,80.41
2022-08-25T01:59:44.931Z,80.30
2022-08-25T02:02:11.531Z,80.35
2022-08-25T02:04:38.562Z,80.30
2022-08-25T02:07:08.806Z,80.45
2022-08-25T02:09:36.563Z,80.30
2022-08-25T02:12:04.367Z,79.95
2022-08-25T02:14:31.012Z,79.88
2022-08-25T02:16:57.751Z,79.90
2022-08-25T02:19:25.960Z,79.66
2022-08-25T02:21:52.799Z,80.08
2022-08-25T02:24:19.584Z,79.91
2022-08-25T02:26:46.245Z,79.82
2022-08-25T02:29:12.894Z,79.95
2022-08-25T02:31:39.730Z,79.53
2022-08-25T02:34:07.146Z,79.78
2022-08-25T02:36:33.800Z,80.25
2022-08-25T02:39:00.946Z,80.07
2022-08-25T02:41:31.335Z,79.88
2022-08-25T02:43:59.509Z,80.33
2022-08-25T02:46:26.270Z,80.54
2022-08-25T02:48:53.353Z,80.57
2022-08-25T02:51:22.190Z,80.86
2022-08-25T02:53:49.050Z,80.47
2022-08-25T02:56:18.319Z,80.13
2022-08-25T02:58:45.977Z,80.34
2022-08-25T03:01:13.270Z,80.07
2022-08-25T03:03:43.513Z,80.37
2022-08-25T03:06:11.097Z,80.09
2022-08-25T03:08:37.983Z,80.30
2022-08-25T03:11:05.582Z,80.00
2022-08-25T03:13:32.943Z,80.22
2022-08-25T03:16:00.905Z,80.58
2022-08-25T03:18:29.512Z,80.49
2022-08-25T03:20:56.072Z,80.66
2022-08-25T03:23:22.650Z,80.32
2022-08-25T03:26:08.027Z,80.18
2022-08-25T03:28:34.687Z,80.34
2022-08-25T03:31:01.451Z,80.29
2022-08-25T03:33:29.582Z,80.30
2022-08-25T03:35:57.902Z,80.29
2022-08-25T03:38:25.434Z,80.38
2022-08-25T03:40:52.666Z,80.51
2022-08-25T03:43:19.210Z,80.49
2022-08-25T03:45:46.431Z,80.18
2022-08-25T03:48:14.218Z,79.53
2022-08-25T03:50:50.719Z,79.85
2022-08-25T03:53:19.885Z,79.74
2022-08-25T03:55:46.626Z,80.07
2022-08-25T03:58:14.144Z,80.35
2022-08-25T04:00:40.917Z,80.30
2022-08-25T04:03:08.060Z,80.50
2022-08-25T04:05:35.316Z,80.52
2022-08-25T04:08:02.141Z,80.87
2022-08-25T04:10:29.222Z,80.81
2022-08-25T04:12:56.181Z,80.97
2022-08-25T04:15:22.823Z,81.08
2022-08-25T04:17:51.131Z,81.31
2022-08-25T04:20:18.952Z,80.94
2022-08-25T04:22:45.526Z,80.79
2022-08-25T04:25:12.883Z,80.86
2022-08-25T04:27:44.919Z,80.73
2022-08-25T04:30:12.020Z,80.81
2022-08-25T04:32:38.482Z,81.07
2022-08-25T04:35:05.490Z,81.07
2022-08-25T04:37:33.385Z,81.18
2022-08-25T04:40:00.216Z,81.43
2022-08-25T04:42:27.303Z,81.48
2022-08-25T04:44:54.558Z,81.41
2022-08-25T04:47:22.381Z,81.38
2022-08-25T04:49:48.884Z,80.93
2022-08-25T04:52:15.516Z,81.06
2022-08-25T04:54:42.503Z,81.57
2022-08-25T04:57:10.778Z,81.34
2022-08-25T04:59:37.307Z,81.25
2022-08-25T05:02:05.397Z,81.15
2022-08-25T05:04:35.213Z,81.42
2022-08-25T05:07:02.671Z,81.06
2022-08-25T05:09:29.365Z,81.39
2022-08-25T05:11:59.762Z,81.36
2022-08-25T05:14:26.839Z,81.15
2022-08-25T05:16:55.467Z,81.21
2022-08-25T05:19:23.957Z,81.46
2022-08-25T05:21:51.163Z,81.54
2022-08-25T05:24:18.098Z,81.55
2022-08-25T05:26:44.843Z,81.34
2022-08-25T05:29:11.770Z,80.95
2022-08-25T05:31:42.328Z,80.54
2022-08-25T05:34:12.080Z,80.19
2022-08-25T05:36:43.370Z,80.63
2022-08-25T05:39:10.880Z,80.53
2022-08-25T05:41:38.236Z,80.47
2022-08-25T05:44:05.021Z,80.11
2022-08-25T05:46:32.047Z,80.08
2022-08-25T05:48:59.032Z,79.47
2022-08-25T05:51:26.275Z,79.08
2022-08-25T05:53:52.943Z,78.54
2022-08-25T05:56:23.013Z,77.88
2022-08-25T05:58:50.234Z,77.75
2022-08-25T06:01:43.493Z,77.56
2022-08-25T06:04:12.112Z,77.24
2022-08-25T06:06:40.669Z,77.15
2022-08-25T06:09:09.414Z,77.22
2022-08-25T06:11:39.996Z,76.63
2022-08-25T06:14:08.205Z,75.68
2022-08-25T06:16:34.897Z,74.76
2022-08-25T06:19:01.439Z,73.31
2022-08-25T06:21:28.106Z,72.64
2022-08-25T06:23:54.635Z,73.17
2022-08-25T06:26:21.634Z,73.50
2022-08-25T06:28:51.868Z,73.73
2022-08-25T06:31:19.736Z,73.64
2022-08-25T06:33:46.716Z,73.05
2022-08-25T06:36:15.256Z,70.67
2022-08-25T06:38:41.795Z,71.21
2022-08-25T06:41:12.403Z,69.25
2022-08-25T06:43:43.766Z,67.46
2022-08-25T06:46:34.726Z,66.91
2022-08-25T06:49:05.053Z,65.80
2022-08-25T06:51:31.557Z,66.04
2022-08-25T06:53:57.988Z,65.26
2022-08-25T06:56:24.634Z,64.58
2022-08-25T06:58:53.261Z,64.42
2022-08-25T07:01:25.811Z,64.31
2022-08-25T07:03:57.326Z,64.48
2022-08-25T07:06:25.348Z,64.77
2022-08-25T07:08:51.879Z,64.78
2022-08-25T07:11:20.952Z,64.79
2022-08-25T07:13:48.042Z,63.74
2022-08-25T07:16:18.350Z,63.29
2022-08-25T07:18:45.512Z,63.05
2022-08-25T07:21:13.696Z,62.30
2022-08-25T07:23:41.854Z,61.38
2022-08-25T07:26:34.010Z,60.09
2022-08-25T07:29:03.019Z,59.46
2022-08-25T07:31:30.180Z,57.67
2022-08-25T07:34:15.368Z,57.32
2022-08-25T07:36:43.703Z,56.71
2022-08-25T07:39:10.651Z,56.15
2022-08-25T07:41:39.495Z,56.20
2022-08-25T07:44:06.757Z,55.81
2022-08-25T07:46:35.584Z,55.44
2022-08-25T07:49:02.387Z,54.61
2022-08-25T07:51:28.945Z,54.15
2022-08-25T07:53:55.506Z,54.05
2022-08-25T07:56:24.533Z,54.29
2022-08-25T07:58:51.293Z,53.39
2022-08-25T08:01:23.376Z,52.66
2022-08-25T08:03:51.633Z,51.99
2022-08-25T08:06:23.521Z,52.15
2022-08-25T08:08:54.538Z,50.94
2022-08-25T08:11:34.445Z,51.44
2022-08-25T08:14:01.950Z,51.12
2022-08-25T08:16:31.345Z,51.69
2022-08-25T08:18:59.950Z,50.98
2022-08-25T08:21:30.356Z,51.10
2022-08-25T08:23:59.015Z,51.31
2022-08-25T08:26:48.246Z,50.13
2022-08-25T08:29:15.380Z,50.26
2022-08-25T08:31:48.755Z,49.44
2022-08-25T08:34:15.850Z,49.58
2022-08-25T08:36:42.535Z,49.26
2022-08-25T08:39:12.107Z,47.44
2022-08-25T08:42:16.794Z,47.03
2022-08-25T08:44:56.065Z,47.60
2022-08-25T08:47:57.802Z,47.43
2022-08-25T08:50:54.363Z,46.70
2022-08-25T08:53:34.101Z,46.37
2022-08-25T08:56:11.708Z,46.60
2022-08-25T08:58:50.256Z,46.77
2022-08-25T09:01:26.674Z,46.32
2022-08-25T09:04:14.675Z,46.22
2022-08-25T09:06:48.155Z,44.78
2022-08-25T09:09:24.921Z,44.31
2022-08-25T09:12:09.957Z,44.34
2022-08-25T09:14:43.043Z,42.95
2022-08-25T09:17:54.513Z,43.26
2022-08-25T09:20:41.099Z,42.31
2022-08-25T09:23:20.382Z,41.74
2022-08-25T09:26:05.607Z,41.83
2022-08-25T09:28:55.399Z,41.18
2022-08-25T09:31:35.722Z,40.79
2022-08-25T09:34:05.806Z,40.84
2022-08-25T09:36:37.396Z,40.93
2022-08-25T09:39:05.967Z,41.00
2022-08-25T09:41:42.174Z,40.55
2022-08-25T09:44:31.839Z,40.68
2022-08-25T09:47:18.079Z,38.84
2022-08-25T09:49:46.014Z,38.18
2022-08-25T09:52:33.166Z,38.99
2022-08-25T09:55:05.824Z,38.52
2022-08-25T09:57:44.407Z,38.76
2022-08-25T10:00:13.242Z,37.89
2022-08-25T10:02:42.680Z,37.56
2022-08-25T10:05:35.145Z,37.78
2022-08-25T10:08:11.165Z,36.88
2022-08-25T10:10:45.997Z,36.97
2022-08-25T10:13:17.478Z,37.84
2022-08-25T10:16:05.053Z,36.72
2022-08-25T10:19:01.981Z,36.78
2022-08-25T10:21:28.528Z,36.41
2022-08-25T10:23:56.386Z,35.35
2022-08-25T10:26:49.949Z,35.98
2022-08-25T10:29:38.094Z,35.26
2022-08-25T10:32:15.677Z,33.67
2022-08-25T10:34:54.617Z,34.65
2022-08-25T10:37:28.589Z,33.71
2022-08-25T10:40:23.250Z,34.74
2022-08-25T10:43:27.291Z,33.51
2022-08-25T10:46:12.230Z,33.59
2022-08-25T10:48:57.215Z,32.60
2022-08-25T10:51:52.714Z,33.54
2022-08-25T10:54:42.404Z,31.54
2022-08-25T10:57:21.329Z,30.51
2022-08-25T11:00:13.090Z,32.06
2022-08-25T11:02:58.723Z,31.32
2022-08-25T11:05:27.970Z,30.26
2022-08-25T11:08:03.513Z,31.45
2022-08-25T11:10:48.468Z,29.79
2022-08-25T11:13:24.726Z,29.73
2022-08-25T11:16:17.473Z,28.95
2022-08-25T11:18:51.535Z,26.72
2022-08-25T11:21:41.411Z,27.94
2022-08-25T11:24:18.593Z,27.65
2022-08-25T11:26:54.575Z,27.56
2022-08-25T11:29:22.114Z,28.03
2022-08-25T11:31:53.725Z,26.78
2022-08-25T11:34:21.998Z,27.00
2022-08-25T11:37:01.034Z,26.53
2022-08-25T11:39:44.600Z,26.20
2022-08-25T11:42:45.849Z,27.18
2022-08-25T11:45:54.555Z,26.42
2022-08-25T11:48:27.365Z,25.95
2022-08-25T11:51:11.852Z,25.88
2022-08-25T11:53:45.012Z,25.80
2022-08-25T11:56:40.705Z,25.65
2022-08-25T11:59:08.322Z,25.69
2022-08-25T12:02:00.944Z,25.02
2022-08-25T12:04:44.147Z,25.16
2022-08-25T12:07:22.820Z,24.83
2022-08-25T12:09:53.960Z,25.44
2022-08-25T12:12:41.772Z,25.94
2022-08-25T12:15:32.538Z,26.55
2022-08-25T12:18:15.306Z,26.05
2022-08-25T12:21:02.607Z,26.04
2022-08-25T12:23:34.843Z,26.43
2022-08-25T12:26:28.692Z,26.51
2022-08-25T12:29:11.782Z,26.63
2022-08-25T12:31:57.261Z,26.40
2022-08-25T12:34:54.513Z,25.83
2022-08-25T12:37:23.955Z,25.19
2022-08-25T12:39:50.387Z,24.75
2022-08-25T12:42:30.100Z,25.36
2022-08-25T12:45:20.791Z,25.05
2022-08-25T12:47:49.951Z,24.02
2022-08-25T12:50:43.219Z,23.97
2022-08-25T12:53:15.625Z,22.47
2022-08-25T12:55:54.673Z,23.84
2022-08-25T12:58:28.547Z,24.01
2022-08-25T13:01:35.393Z,24.14
2022-08-25T13:04:14.904Z,24.18
2022-08-25T13:07:00.910Z,22.91
2022-08-25T13:09:58.723Z,22.67
2022-08-25T13:12:34.234Z,23.41
2022-08-25T13:15:01.153Z,22.45
2022-08-25T13:17:33.688Z,22.83
2022-08-25T13:20:20.416Z,22.80
2022-08-25T13:22:55.269Z,22.46
2022-08-25T13:25:32.195Z,23.27
2022-08-25T13:28:04.022Z,22.35
2022-08-25T13:30:36.535Z,22.42
2022-08-25T13:33:23.935Z,22.17
2022-08-25T13:36:13.366Z,21.46
2022-08-25T13:38:40.115Z,22.38
2022-08-25T13:41:09.595Z,22.02
2022-08-25T13:43:38.518Z,22.08
2022-08-25T13:46:06.069Z,21.53
2022-08-25T13:48:39.522Z,20.81
2022-08-25T13:51:23.444Z,21.08
2022-08-25T13:53:53.449Z,21.42
2022-08-25T13:56:41.567Z,21.68
2022-08-25T13:59:41.783Z,21.79
2022-08-25T14:02:09.805Z,21.51
2022-08-25T14:04:51.176Z,20.98
2022-08-25T14:07:21.314Z,20.29
2022-08-25T14:09:49.595Z,20.85
2022-08-25T14:12:33.958Z,20.80
2022-08-25T14:15:10.013Z,20.85
2022-08-25T14:17:40.982Z,19.52
2022-08-25T14:20:19.865Z,19.85
2022-08-25T14:22:46.562Z,19.55
2022-08-25T14:25:13.343Z,19.76
2022-08-25T14:28:05.354Z,19.21
2022-08-25T14:30:35.358Z,18.78
2022-08-25T14:33:04.476Z,19.15
2022-08-25T14:35:31.479Z,18.88
2022-08-25T14:37:58.671Z,19.22
2022-08-25T14:40:25.792Z,18.47
2022-08-25T14:42:52.358Z,18.01
2022-08-25T14:45:19.329Z,18.18
2022-08-25T14:47:49.795Z,18.79
2022-08-25T14:50:20.987Z,19.41
2022-08-25T14:52:48.262Z,19.74
2022-08-25T14:55:30.785Z,19.32
2022-08-25T14:58:00.268Z,19.65
2022-08-25T15:00:27.953Z,20.83
2022-08-25T15:02:54.852Z,21.44
2022-08-25T15:05:28.420Z,24.47
2022-08-25T15:08:33.420Z,25.03
2022-08-25T15:11:00.502Z,24.34
2022-08-25T15:13:27.547Z,24.29
2022-08-25T15:15:55.293Z,24.07
2022-08-25T15:18:28.011Z,24.84
2022-08-25T15:20:54.577Z,25.34
2022-08-25T15:23:21.433Z,23.74
2022-08-25T15:25:52.734Z,24.52
2022-08-25T15:28:22.290Z,27.44
2022-08-25T15:30:49.891Z,28.71
2022-08-25T15:33:17.393Z,30.27
2022-08-25T15:35:43.938Z,30.44
2022-08-25T15:38:11.988Z,30.13
2022-08-25T15:40:39.674Z,31.17
2022-08-25T15:43:06.954Z,31.24
2022-08-25T15:45:36.115Z,32.77
2022-08-25T15:48:09.573Z,33.32
2022-08-25T15:50:36.921Z,33.72
2022-08-25T15:53:07.078Z,33.95
2022-08-25T15:55:39.116Z,33.01
2022-08-25T15:58:06.874Z,33.26
2022-08-25T16:00:35.349Z,33.43
2022-08-25T16:03:02.125Z,31.68
2022-08-25T16:05:29.461Z,28.72
2022-08-25T16:07:56.771Z,28.64
2022-08-25T16:10:25.243Z,26.70
2022-08-25T16:12:51.743Z,22.66
2022-08-25T16:15:18.324Z,23.71
2022-08-25T16:17:51.217Z,23.69
2022-08-25T16:20:18.282Z,21.98
2022-08-25T16:22:45.121Z,20.73
2022-08-25T16:25:11.681Z,21.77
2022-08-25T16:27:39.235Z,21.69
2022-08-25T16:30:08.199Z,22.15
2022-08-25T16:32:35.012Z,22.05
2022-08-25T16:35:02.865Z,21.93
2022-08-25T16:37:29.891Z,24.77
2022-08-25T16:39:57.075Z,26.16
2022-08-25T16:42:24.301Z,27.12
2022-08-25T16:44:53.940Z,27.08
2022-08-25T16:47:25.137Z,27.39
2022-08-25T16:49:54.070Z,27.25
2022-08-25T16:52:40.616Z,27.96
2022-08-25T16:55:14.340Z,27.94
2022-08-25T16:57:43.841Z,27.33
2022-08-25T17:00:13.822Z,28.99
2022-08-25T17:02:42.105Z,31.80
2022-08-25T17:05:10.701Z,33.04
2022-08-25T17:07:37.732Z,27.99
2022-08-25T17:10:05.800Z,29.46
2022-08-25T17:12:32.772Z,29.08
2022-08-25T17:14:59.276Z,29.46
2022-08-25T17:17:27.099Z,29.29
2022-08-25T17:19:54.866Z,30.06
2022-08-25T17:22:22.347Z,29.69
2022-08-25T17:24:59.274Z,31.00
2022-08-25T17:27:28.079Z,32.80
2022-08-25T17:29:55.396Z,33.72
2022-08-25T17:32:28.693Z,34.77
2022-08-25T17:34:57.434Z,35.97
2022-08-25T17:37:24.531Z,36.42
2022-08-25T17:40:02.509Z,37.32
2022-08-25T17:42:30.320Z,38.56
2022-08-25T17:44:57.876Z,39.24
2022-08-25T17:47:24.478Z,39.86
2022-08-25T17:49:50.918Z,40.25
2022-08-25T17:52:17.453Z,40.88
2022-08-25T17:54:43.958Z,41.08
2022-08-25T17:57:10.780Z,41.34
2022-08-25T17:59:40.451Z,41.62
2022-08-25T18:02:08.182Z,41.74
2022-08-25T18:04:37.983Z,42.12
2022-08-25T18:07:07.663Z,42.13
2022-08-25T18:09:34.393Z,43.05
2022-08-25T18:12:00.816Z,42.82
2022-08-25T18:14:27.341Z,43.19
2022-08-25T18:16:54.076Z,43.70
2022-08-25T18:19:20.917Z,43.77
2022-08-25T18:21:47.592Z,44.74
2022-08-25T18:24:14.105Z,45.22
2022-08-25T18:26:40.819Z,45.51
2022-08-25T18:29:07.361Z,45.70
2022-08-25T18:31:34.206Z,46.59
2022-08-25T18:34:04.998Z,45.96
2022-08-25T18:36:32.408Z,47.42
2022-08-25T18:39:24.900Z,47.35
2022-08-25T18:41:51.741Z,47.49
2022-08-25T18:44:18.391Z,47.31
2022-08-25T18:46:45.578Z,47.59
2022-08-25T18:49:15.792Z,48.00
2022-08-25T18:51:44.706Z,48.86
2022-08-25T18:54:23.343Z,48.80
2022-08-25T18:56:52.334Z,49.77
2022-08-25T18:59:19.583Z,50.98
2022-08-25T19:01:46.191Z,51.56
2022-08-25T19:04:14.767Z,51.47
2022-08-25T19:06:43.898Z,52.44
2022-08-25T19:09:10.774Z,52.72
2022-08-25T19:11:38.119Z,53.59
2022-08-25T19:14:08.072Z,54.25
2022-08-25T19:16:42.415Z,55.35
2022-08-25T19:19:13.163Z,56.22
2022-08-25T19:21:41.968Z,57.59
2022-08-25T19:24:10.970Z,58.36
2022-08-25T19:26:38.543Z,58.92
2022-08-25T19:29:09.334Z,58.86
2022-08-25T19:31:36.714Z,59.87
2022-08-25T19:34:04.691Z,60.74
2022-08-25T19:36:31.430Z,60.21
2022-08-25T19:39:01.245Z,60.55
2022-08-25T19:41:31.133Z,61.19
2022-08-25T19:43:58.547Z,62.13
2022-08-25T19:46:32.024Z,62.73
2022-08-25T19:49:07.211Z,62.44
2022-08-25T19:51:39.638Z,63.73
2022-08-25T19:54:08.944Z,64.98
2022-08-25T19:56:44.019Z,64.53
2022-08-25T19:59:40.747Z,65.38
2022-08-25T20:02:11.203Z,65.69
2022-08-25T20:04:37.744Z,66.55
2022-08-25T20:07:04.622Z,65.95
2022-08-25T20:09:39.395Z,67.05
2022-08-25T20:12:10.263Z,67.80
2022-08-25T20:14:37.066Z,67.90
2022-08-25T20:17:14.657Z,68.50
2022-08-25T20:19:54.067Z,68.98
2022-08-25T20:22:25.847Z,68.46
2022-08-25T20:24:55.757Z,68.63
2022-08-25T20:27:31.311Z,68.59
2022-08-25T20:30:02.618Z,68.17
2022-08-25T20:32:31.356Z,67.96
2022-08-25T20:34:57.839Z,67.79
2022-08-25T20:37:25.789Z,68.25
2022-08-25T20:39:52.717Z,68.91
2022-08-25T20:42:19.327Z,69.11
2022-08-25T20:44:47.058Z,70.07
2022-08-25T20:47:15.669Z,70.27
2022-08-25T20:49:44.528Z,70.74
2022-08-25T20:52:11.975Z,71.07
2022-08-25T20:54:40.347Z,71.60
2022-08-25T20:57:08.123Z,71.21
2022-08-25T20:59:34.687Z,71.75
2022-08-25T21:02:01.523Z,72.36
2022-08-25T21:04:29.805Z,72.74
2022-08-25T21:07:01.108Z,73.72
2022-08-25T21:09:28.549Z,74.26
2022-08-25T21:11:56.867Z,74.25
2022-08-25T21:14:24.278Z,74.81
2022-08-25T21:16:52.770Z,74.75
2022-08-25T21:19:26.783Z,75.08
2022-08-25T21:21:59.592Z,74.96
2022-08-25T21:24:28.088Z,74.93
2022-08-25T21:26:57.926Z,74.96
2022-08-25T21:29:28.670Z,75.09
2022-08-25T21:31:56.016Z,75.70
2022-08-25T21:34:22.442Z,76.38
2022-08-25T21:36:50.763Z,76.41
2022-08-25T21:39:17.272Z,76.12
2022-08-25T21:41:45.614Z,76.20
2022-08-25T21:44:12.987Z,76.67
2022-08-25T21:46:53.806Z,76.74
2022-08-25T21:49:21.775Z,76.78
2022-08-25T21:51:51.006Z,76.93
2022-08-25T21:54:26.146Z,76.89
2022-08-25T21:56:55.935Z,77.06
2022-08-25T21:59:25.191Z,77.26
2022-08-25T22:01:57.470Z,76.87
2022-08-25T22:04:24.501Z,76.71
2022-08-25T22:06:54.998Z,77.26
2022-08-25T22:09:24.648Z,77.58
2022-08-25T22:11:52.295Z,77.48
2022-08-25T22:14:23.710Z,77.80
2022-08-25T22:16:51.985Z,78.09
2022-08-25T22:19:18.568Z,78.27
2022-08-25T22:21:45.654Z,77.84
2022-08-25T22:24:12.261Z,78.33
2022-08-25T22:26:39.907Z,78.75
2022-08-25T22:29:06.644Z,78.45
2022-08-25T22:31:34.595Z,78.34
2022-08-25T22:34:01.285Z,78.10
2022-08-25T22:36:34.981Z,78.17
2022-08-25T22:39:01.814Z,77.84
2022-08-25T22:41:31.472Z,77.85
2022-08-25T22:44:00.107Z,78.20
2022-08-25T22:46:35.670Z,78.10
2022-08-25T22:49:02.197Z,77.92
2022-08-25T22:51:32.509Z,77.78
2022-08-25T22:54:00.592Z,77.82
2022-08-25T22:56:34.324Z,78.07
2022-08-25T22:59:06.585Z,78.03
2022-08-25T23:01:33.540Z,78.39
2022-08-25T23:04:04.947Z,78.39
2022-08-25T23:06:34.431Z,78.21
2022-08-25T23:09:01.470Z,78.19
2022-08-25T23:11:28.848Z,78.14
2022-08-25T23:13:57.265Z,78.28
2022-08-25T23:16:25.251Z,78.31
2022-08-25T23:18:53.025Z,78.36
2022-08-25T23:21:41.221Z,78.53
2022-08-25T23:24:10.989Z,78.79
2022-08-25T23:26:42.490Z,78.66
2022-08-25T23:29:18.821Z,79.06
2022-08-25T23:31:49.635Z,79.00
2022-08-25T23:34:16.494Z,78.89
2022-08-25T23:36:44.653Z,78.75
2022-08-25T23:39:11.321Z,78.78
2022-08-25T23:41:38.368Z,78.58
2022-08-25T23:44:09.350Z,78.75
2022-08-25T23:46:38.308Z,78.25
2022-08-25T23:49:08.455Z,78.26
2022-08-25T23:51:38.103Z,78.21
2022-08-25T23:54:09.296Z,78.32
2022-08-25T23:56:44.783Z,78.28
2022-08-25T23:59:24.562Z,78.25
